Al Minhad Air Base


Codes: OMDM/NHD
Name: Al Minhad Air Base
City: Dubai
Country: United Arab Emirates
Elevation: 165 ft.
Wikipedia:

Photos at Al Minhad Air Base


   Photos courtesy of SpottingLog. You can add your own sightings and photos by signing up for a free trial today.



No photos found.

Weather at Al Minhad Air Base


Time (UTC)DescriptionTempratureWindCloud coverageVisibilityPressureHumidity
23-May-2024 21:00Clear Sky32°C7 mph, NW0%10000m1003hPa49%
24-May-2024 00:00Clear Sky31°C7 mph, SW0%10000m1003hPa50%
24-May-2024 03:00Clear Sky31°C11 mph, W0%10000m1003hPa45%
24-May-2024 06:00Clear Sky37°C20 mph, W0%10000m1003hPa18%
24-May-2024 09:00Clear Sky38°C25 mph, NW0%10000m1002hPa19%
24-May-2024 12:00Clear Sky36°C18 mph, NW0%10000m1001hPa27%
24-May-2024 15:00Clear Sky33°C13 mph, NW0%10000m1001hPa39%
24-May-2024 18:00Clear Sky31°C11 mph, W0%10000m1003hPa49%
24-May-2024 21:00Clear Sky30°C9 mph, SW0%10000m1002hPa55%
25-May-2024 00:00Clear Sky29°C9 mph, SW0%10000m1001hPa58%
25-May-2024 03:00Clear Sky29°C9 mph, SW0%10000m1002hPa58%
25-May-2024 06:00Clear Sky35°C4 mph, SW0%10000m1002hPa28%
25-May-2024 09:00Clear Sky39°C11 mph, W0%10000m1001hPa19%
25-May-2024 12:00Clear Sky37°C13 mph, W0%10000m1000hPa30%
25-May-2024 15:00Clear Sky33°C11 mph, NW0%10000m1001hPa45%
25-May-2024 18:00Clear Sky32°C7 mph, NW0%10000m1002hPa56%
25-May-2024 21:00Clear Sky31°C4 mph, E0%10000m1001hPa46%
26-May-2024 00:00Clear Sky31°C2 mph, E0%10000m1000hPa38%
26-May-2024 03:00Clear Sky33°C2 mph, SE0%10000m1002hPa30%
26-May-2024 06:00Clear Sky40°C4 mph, SE0%10000m1002hPa11%
26-May-2024 09:00Clear Sky45°C9 mph, NW0%10000m1001hPa9%
26-May-2024 12:00Clear Sky42°C13 mph, N0%10000m1000hPa15%
26-May-2024 15:00Clear Sky38°C11 mph, N0%10000m1001hPa23%
26-May-2024 18:00Clear Sky36°C7 mph, N0%10000m1002hPa29%
26-May-2024 21:00Clear Sky34°C7 mph, N0%10000m1001hPa33%
27-May-2024 00:00Clear Sky34°C4 mph, SE0%10000m1001hPa24%
27-May-2024 03:00Clear Sky36°C9 mph, S0%10000m1003hPa18%
27-May-2024 06:00Clear Sky42°C9 mph, S0%10000m1003hPa10%
27-May-2024 09:00Clear Sky44°C13 mph, NW0%10000m1002hPa8%
27-May-2024 12:00Clear Sky41°C11 mph, NW0%10000m1001hPa14%
27-May-2024 15:00Clear Sky36°C9 mph, NW0%10000m1001hPa36%
27-May-2024 18:00Clear Sky34°C7 mph, W0%10000m1002hPa46%
27-May-2024 21:00Clear Sky33°C4 mph, SW0%10000m1002hPa50%
28-May-2024 00:00Clear Sky31°C9 mph, SW0%10000m1001hPa53%
28-May-2024 03:00Clear Sky32°C9 mph, S0%10000m1003hPa46%
28-May-2024 06:00Clear Sky39°C11 mph, SW1%10000m1003hPa18%
28-May-2024 09:00Clear Sky42°C16 mph, W0%10000m1001hPa12%
28-May-2024 12:00Clear Sky39°C13 mph, W0%10000m1000hPa19%
28-May-2024 15:00Clear Sky34°C11 mph, W0%10000m1000hPa37%
28-May-2024 18:00Clear Sky31°C9 mph, SW0%10000m1001hPa52%